createdAt,value
2018-07-31T00:00:14.839Z,23.00
2018-07-31T00:02:44.115Z,23.00
2018-07-31T00:05:13.197Z,23.00
2018-07-31T00:07:42.228Z,23.10
2018-07-31T00:10:11.338Z,23.10
2018-07-31T00:12:40.362Z,23.10
2018-07-31T00:15:11.161Z,22.90
2018-07-31T00:17:40.282Z,22.70
2018-07-31T00:20:09.343Z,22.70
2018-07-31T00:22:38.442Z,22.80
2018-07-31T00:25:07.487Z,22.70
2018-07-31T00:27:37.467Z,22.60
2018-07-31T00:30:08.039Z,22.60
2018-07-31T00:32:37.123Z,22.60
2018-07-31T00:35:06.308Z,22.70
2018-07-31T00:37:35.321Z,22.70
2018-07-31T00:40:04.648Z,22.70
2018-07-31T00:42:33.712Z,22.60
2018-07-31T00:45:04.509Z,22.50
2018-07-31T00:47:33.806Z,22.50
2018-07-31T00:50:02.895Z,22.40
2018-07-31T00:52:32.638Z,22.30
2018-07-31T00:55:01.696Z,22.30
2018-07-31T00:57:30.720Z,22.30
2018-07-31T00:59:59.803Z,22.30
2018-07-31T01:02:30.163Z,22.30
2018-07-31T01:04:59.236Z,22.30
2018-07-31T01:07:28.281Z,22.20
2018-07-31T01:09:57.907Z,22.20
2018-07-31T01:12:27.030Z,22.20
2018-07-31T01:14:56.081Z,22.20
2018-07-31T01:17:25.124Z,22.30
2018-07-31T01:19:54.188Z,22.30
2018-07-31T01:22:23.379Z,22.30
2018-07-31T01:24:52.479Z,22.30
2018-07-31T01:27:21.929Z,22.30
2018-07-31T01:29:50.994Z,22.20
2018-07-31T01:32:20.382Z,22.20
2018-07-31T01:34:49.518Z,22.00
2018-07-31T01:37:18.540Z,22.00
2018-07-31T01:39:47.588Z,22.10
2018-07-31T01:42:16.587Z,22.00
2018-07-31T01:44:45.677Z,22.00
2018-07-31T01:47:14.729Z,22.00
2018-07-31T01:49:43.800Z,22.10
2018-07-31T01:52:12.929Z,22.10
2018-07-31T01:54:42.015Z,22.00
2018-07-31T01:57:11.075Z,22.00
2018-07-31T01:59:40.255Z,21.90
2018-07-31T02:02:09.210Z,22.00
2018-07-31T02:04:38.264Z,22.00
2018-07-31T02:07:07.294Z,22.00
2018-07-31T02:09:36.377Z,22.00
2018-07-31T02:12:05.393Z,21.90
2018-07-31T02:14:35.208Z,21.90
2018-07-31T02:17:04.305Z,21.90
2018-07-31T02:19:33.358Z,21.90
2018-07-31T02:22:02.396Z,21.80
2018-07-31T02:24:31.498Z,21.80
2018-07-31T02:27:00.574Z,21.80
2018-07-31T02:29:34.906Z,21.80
2018-07-31T02:32:03.941Z,21.80
2018-07-31T02:34:33.029Z,21.70
2018-07-31T02:37:02.204Z,21.80
2018-07-31T02:39:31.263Z,21.80
2018-07-31T02:42:00.362Z,21.70
2018-07-31T02:44:29.423Z,21.70
2018-07-31T02:46:58.574Z,21.70
2018-07-31T02:49:27.981Z,21.70
2018-07-31T02:51:57.023Z,21.60
2018-07-31T02:54:26.061Z,21.70
2018-07-31T02:56:55.137Z,21.70
2018-07-31T02:59:24.511Z,21.80
2018-07-31T03:01:53.528Z,21.70
2018-07-31T03:04:22.539Z,21.70
2018-07-31T03:06:51.596Z,21.70
2018-07-31T03:09:20.695Z,21.60
2018-07-31T03:11:49.774Z,21.60
2018-07-31T03:14:18.788Z,21.50
2018-07-31T03:16:47.901Z,21.50
2018-07-31T03:19:16.919Z,21.50
2018-07-31T03:21:46.007Z,21.50
2018-07-31T03:24:15.473Z,21.50
2018-07-31T03:26:44.523Z,21.50
2018-07-31T03:29:14.699Z,21.60
2018-07-31T03:31:43.736Z,21.60
2018-07-31T03:34:12.743Z,21.60
2018-07-31T03:36:42.471Z,21.60
2018-07-31T03:39:11.670Z,21.60
2018-07-31T03:41:40.757Z,21.50
2018-07-31T03:44:09.818Z,21.50
2018-07-31T03:46:38.846Z,21.40
2018-07-31T03:49:07.877Z,21.40
2018-07-31T03:51:36.894Z,21.30
2018-07-31T03:54:06.045Z,21.30
2018-07-31T03:56:35.134Z,21.30
2018-07-31T03:59:04.389Z,21.10
2018-07-31T04:01:33.431Z,21.20
2018-07-31T04:04:02.447Z,21.30
2018-07-31T04:06:31.484Z,21.50
2018-07-31T04:09:00.533Z,21.40
2018-07-31T04:11:30.025Z,21.40
2018-07-31T04:13:59.118Z,21.50
2018-07-31T04:16:28.961Z,21.50
2018-07-31T04:18:57.992Z,21.50
2018-07-31T04:21:27.223Z,21.50
2018-07-31T04:23:56.246Z,21.50
2018-07-31T04:26:25.293Z,21.60
2018-07-31T04:28:54.318Z,21.70
2018-07-31T04:31:25.611Z,21.80
2018-07-31T04:33:54.985Z,21.90
2018-07-31T04:36:24.035Z,22.00
2018-07-31T04:38:53.029Z,22.00
2018-07-31T04:41:22.130Z,22.00
2018-07-31T04:43:51.064Z,22.10
2018-07-31T04:46:20.088Z,22.20
2018-07-31T04:48:49.122Z,22.30
2018-07-31T04:51:18.141Z,22.30
2018-07-31T04:53:47.172Z,22.40
2018-07-31T04:56:16.212Z,22.40
2018-07-31T04:58:45.556Z,22.40
2018-07-31T05:01:14.606Z,22.50
2018-07-31T05:03:43.805Z,22.50
2018-07-31T05:06:12.883Z,22.50
2018-07-31T05:08:41.936Z,22.60
2018-07-31T05:11:11.013Z,22.70
2018-07-31T05:13:40.047Z,22.80
2018-07-31T05:16:09.077Z,22.80
2018-07-31T05:18:38.172Z,22.90
2018-07-31T05:21:07.456Z,23.00
2018-07-31T05:23:36.479Z,23.10
2018-07-31T05:26:05.534Z,23.10
2018-07-31T05:28:34.546Z,23.10
2018-07-31T05:31:03.646Z,23.20
2018-07-31T05:33:32.704Z,23.20
2018-07-31T05:36:01.701Z,23.50
2018-07-31T05:38:30.734Z,23.60
2018-07-31T05:40:59.723Z,23.80
2018-07-31T05:43:28.913Z,23.80
2018-07-31T05:45:58.375Z,23.90
2018-07-31T05:48:27.409Z,23.90
2018-07-31T05:50:56.583Z,24.00
2018-07-31T05:53:25.599Z,24.30
2018-07-31T05:55:54.600Z,24.50
2018-07-31T05:58:23.626Z,24.70
2018-07-31T06:00:52.667Z,25.00
2018-07-31T06:05:50.419Z,25.40
2018-07-31T06:08:19.440Z,25.70
2018-07-31T06:10:48.509Z,25.90
2018-07-31T06:13:17.556Z,25.90
2018-07-31T06:15:46.559Z,26.00
2018-07-31T06:18:15.620Z,26.10
2018-07-31T06:20:44.716Z,26.00
2018-07-31T06:23:14.671Z,26.10
2018-07-31T06:25:43.658Z,26.20
2018-07-31T06:28:12.689Z,26.40
2018-07-31T06:30:41.687Z,26.60
2018-07-31T06:33:10.734Z,26.70
2018-07-31T06:35:39.722Z,26.80
2018-07-31T06:38:08.735Z,26.90
2018-07-31T06:40:37.704Z,27.00
2018-07-31T06:43:06.987Z,27.00
2018-07-31T06:45:36.174Z,27.00
2018-07-31T06:48:05.713Z,27.20
2018-07-31T06:50:35.560Z,27.40
2018-07-31T06:53:04.800Z,27.50
2018-07-31T06:55:34.025Z,27.60
2018-07-31T06:58:03.251Z,27.70
2018-07-31T07:00:32.463Z,27.80
2018-07-31T07:03:01.732Z,27.90
2018-07-31T07:05:30.892Z,28.00
2018-07-31T07:08:00.132Z,28.10
2018-07-31T07:10:29.348Z,28.10
2018-07-31T07:12:58.532Z,28.20
2018-07-31T07:15:27.773Z,28.20
2018-07-31T07:17:56.950Z,28.40
2018-07-31T07:22:54.977Z,28.70
2018-07-31T07:25:24.172Z,28.80
2018-07-31T07:27:53.425Z,28.80
2018-07-31T07:30:22.560Z,28.90
2018-07-31T07:32:51.783Z,28.80
2018-07-31T07:35:20.773Z,29.00
2018-07-31T07:37:49.753Z,29.20
2018-07-31T07:40:18.768Z,29.30
2018-07-31T07:42:47.764Z,29.50
2018-07-31T07:45:16.762Z,29.70
2018-07-31T07:47:45.788Z,29.80
2018-07-31T07:50:14.776Z,30.10
2018-07-31T07:52:43.739Z,30.60
2018-07-31T07:55:12.757Z,31.20
2018-07-31T08:07:38.079Z,36.30
2018-07-31T08:10:07.358Z,37.20
2018-07-31T08:12:36.528Z,38.50
2018-07-31T08:15:05.934Z,38.90
2018-07-31T08:17:35.154Z,38.50
2018-07-31T08:20:04.920Z,37.70
2018-07-31T08:22:34.105Z,36.90
2018-07-31T08:25:03.374Z,36.60
2018-07-31T08:27:32.593Z,36.30
2018-07-31T08:30:01.801Z,35.70
2018-07-31T08:32:31.011Z,35.30
2018-07-31T08:35:00.235Z,35.20
2018-07-31T08:39:58.176Z,35.20
2018-07-31T08:42:27.349Z,34.90
2018-07-31T08:44:56.605Z,34.70
2018-07-31T08:47:25.850Z,34.90
2018-07-31T08:49:55.086Z,35.20
2018-07-31T08:52:24.277Z,35.50
2018-07-31T08:54:54.640Z,35.70
2018-07-31T08:57:23.904Z,36.00
2018-07-31T08:59:53.148Z,36.30
2018-07-31T09:04:52.508Z,36.30
2018-07-31T09:07:21.677Z,36.30
2018-07-31T09:12:19.756Z,37.00
2018-07-31T09:14:49.073Z,37.70
2018-07-31T09:19:47.080Z,38.60
2018-07-31T09:22:16.281Z,38.10
2018-07-31T09:24:45.508Z,37.70
2018-07-31T09:27:14.746Z,37.10
2018-07-31T09:29:43.985Z,36.80
2018-07-31T09:32:13.305Z,37.00
2018-07-31T09:34:46.494Z,37.10
2018-07-31T09:37:16.204Z,37.30
2018-07-31T09:39:45.468Z,37.70
2018-07-31T09:42:14.656Z,38.00
2018-07-31T09:44:43.856Z,38.20
2018-07-31T09:52:11.113Z,38.80
2018-07-31T09:54:40.352Z,38.70
2018-07-31T09:57:09.705Z,38.80
2018-07-31T09:59:38.752Z,38.50
2018-07-31T10:02:07.773Z,38.20
2018-07-31T10:04:36.839Z,37.80
2018-07-31T10:07:05.940Z,37.20
2018-07-31T10:09:34.979Z,36.40
2018-07-31T10:12:04.106Z,35.50
2018-07-31T10:14:33.175Z,35.10
2018-07-31T10:17:02.167Z,34.80
2018-07-31T10:19:31.176Z,34.70
2018-07-31T10:22:00.258Z,34.70
2018-07-31T10:24:29.362Z,34.80
2018-07-31T10:26:58.360Z,35.10
2018-07-31T10:29:27.359Z,35.40
2018-07-31T10:31:56.399Z,35.40
2018-07-31T10:34:25.405Z,35.40
2018-07-31T10:36:54.471Z,36.60
2018-07-31T10:39:23.466Z,38.50
2018-07-31T10:41:52.482Z,39.20
2018-07-31T10:44:21.495Z,38.70
2018-07-31T10:46:50.527Z,37.70
2018-07-31T10:49:19.554Z,37.10
2018-07-31T10:54:17.258Z,36.30
2018-07-31T10:56:46.271Z,36.00
2018-07-31T10:59:15.263Z,35.70
2018-07-31T11:01:44.302Z,35.50
2018-07-31T11:04:13.862Z,35.20
2018-07-31T11:06:42.980Z,35.00
2018-07-31T11:09:12.496Z,34.80
2018-07-31T11:11:42.127Z,34.50
2018-07-31T11:14:11.203Z,34.30
2018-07-31T11:16:41.011Z,34.20
2018-07-31T11:19:10.028Z,34.10
2018-07-31T11:21:39.096Z,34.00
2018-07-31T11:24:08.117Z,33.90
2018-07-31T11:26:37.211Z,33.90
2018-07-31T11:29:06.381Z,33.80
2018-07-31T11:31:35.422Z,33.80
2018-07-31T11:36:33.771Z,33.70
2018-07-31T11:39:02.801Z,33.70
2018-07-31T11:41:31.859Z,33.60
2018-07-31T11:44:00.933Z,33.70
2018-07-31T11:46:29.948Z,33.70
2018-07-31T11:48:58.945Z,33.80
2018-07-31T11:51:27.971Z,33.90
2018-07-31T11:53:57.016Z,33.90
2018-07-31T11:56:26.066Z,34.00
2018-07-31T12:01:23.763Z,34.20
2018-07-31T12:03:52.768Z,34.20
2018-07-31T12:06:21.801Z,34.20
2018-07-31T12:08:50.800Z,34.30
2018-07-31T12:11:19.825Z,34.30
2018-07-31T12:13:48.852Z,34.30
2018-07-31T12:16:17.933Z,34.30
2018-07-31T12:18:47.105Z,34.30
2018-07-31T12:21:16.509Z,34.40
2018-07-31T12:23:45.582Z,34.40
2018-07-31T12:26:14.623Z,34.40
2018-07-31T12:28:43.638Z,34.40
2018-07-31T12:31:12.673Z,34.50
2018-07-31T12:33:41.667Z,34.60
2018-07-31T12:36:10.725Z,34.50
2018-07-31T12:38:39.748Z,34.50
2018-07-31T12:41:08.857Z,34.50
2018-07-31T12:43:38.033Z,34.50
2018-07-31T12:46:07.089Z,34.50
2018-07-31T12:48:36.128Z,34.50
2018-07-31T12:51:05.193Z,34.50
2018-07-31T12:53:34.256Z,34.60
2018-07-31T12:56:03.416Z,34.60
2018-07-31T12:58:33.302Z,34.70
2018-07-31T13:01:02.325Z,34.70
2018-07-31T13:03:31.372Z,34.70
2018-07-31T13:06:00.446Z,34.70
2018-07-31T13:08:29.467Z,34.70
2018-07-31T13:10:58.492Z,34.70
2018-07-31T13:13:27.535Z,34.60
2018-07-31T13:15:56.683Z,34.50
2018-07-31T13:18:25.721Z,34.40
2018-07-31T13:20:54.782Z,34.30
2018-07-31T13:23:23.821Z,34.10
2018-07-31T13:25:52.828Z,34.00
2018-07-31T13:28:21.859Z,34.00
2018-07-31T13:30:50.978Z,34.00
2018-07-31T13:33:19.919Z,33.90
2018-07-31T13:35:48.927Z,34.00
2018-07-31T13:38:17.993Z,33.90
2018-07-31T13:40:47.160Z,33.90
2018-07-31T13:43:16.218Z,33.80
2018-07-31T13:45:45.414Z,33.70
2018-07-31T13:48:15.117Z,33.70
2018-07-31T13:50:44.134Z,33.60
2018-07-31T13:53:13.202Z,33.60
2018-07-31T13:55:42.319Z,33.50
2018-07-31T13:58:11.436Z,33.50
2018-07-31T14:00:40.441Z,33.50
2018-07-31T14:03:09.463Z,33.50
2018-07-31T14:08:07.091Z,33.40
2018-07-31T14:10:36.185Z,33.30
2018-07-31T14:13:05.431Z,33.30
2018-07-31T14:15:34.422Z,33.50
2018-07-31T14:18:03.452Z,33.50
2018-07-31T14:20:34.607Z,33.40
2018-07-31T14:23:04.257Z,33.50
2018-07-31T14:25:34.525Z,33.60
2018-07-31T14:28:03.550Z,33.60
2018-07-31T14:30:32.620Z,33.50
2018-07-31T14:35:30.777Z,33.30
2018-07-31T14:37:59.799Z,33.20
2018-07-31T14:40:28.836Z,33.10
2018-07-31T14:42:58.488Z,33.00
2018-07-31T14:45:27.587Z,33.10
2018-07-31T14:47:56.735Z,33.10
2018-07-31T14:50:25.727Z,33.20
2018-07-31T14:52:54.744Z,33.20
2018-07-31T14:55:23.732Z,33.20
2018-07-31T14:57:52.721Z,33.10
2018-07-31T15:00:21.742Z,33.10
2018-07-31T15:05:19.390Z,33.00
2018-07-31T15:07:48.479Z,33.00
2018-07-31T15:10:17.473Z,33.10
2018-07-31T15:12:46.495Z,33.00
2018-07-31T15:15:17.915Z,33.00
2018-07-31T15:17:46.926Z,33.00
2018-07-31T15:20:15.983Z,32.90
2018-07-31T15:22:45.001Z,32.90
2018-07-31T15:25:14.028Z,33.00
2018-07-31T15:27:43.069Z,33.00
2018-07-31T15:30:12.135Z,32.90
2018-07-31T15:32:41.171Z,32.90
2018-07-31T15:35:10.206Z,32.90
2018-07-31T15:37:39.214Z,32.90
2018-07-31T15:40:08.259Z,32.90
2018-07-31T15:42:37.251Z,32.90
2018-07-31T15:45:06.496Z,33.00
2018-07-31T15:47:35.500Z,33.00
2018-07-31T15:50:05.537Z,33.00
2018-07-31T15:52:36.835Z,33.00
2018-07-31T15:55:05.982Z,33.00
2018-07-31T15:57:35.089Z,33.00
2018-07-31T16:00:05.924Z,33.00
2018-07-31T16:02:34.920Z,33.10
2018-07-31T16:05:04.067Z,33.00
2018-07-31T16:07:33.385Z,33.10
2018-07-31T16:10:02.963Z,33.20
2018-07-31T16:12:31.994Z,33.20
2018-07-31T16:17:31.211Z,33.20
2018-07-31T16:20:00.214Z,33.20
2018-07-31T16:22:29.264Z,33.10
2018-07-31T16:24:59.399Z,33.10
2018-07-31T16:27:28.421Z,33.00
2018-07-31T16:32:27.038Z,33.00
2018-07-31T16:34:56.135Z,33.00
2018-07-31T16:40:05.370Z,33.00
2018-07-31T16:42:34.439Z,32.90
2018-07-31T16:45:03.594Z,32.90
2018-07-31T16:47:32.605Z,32.90
2018-07-31T16:50:01.685Z,32.90
2018-07-31T16:52:30.650Z,32.80
2018-07-31T16:57:28.384Z,32.80
2018-07-31T16:59:57.499Z,32.80
2018-07-31T17:02:26.494Z,32.70
2018-07-31T17:04:55.520Z,32.70
2018-07-31T17:07:24.514Z,32.70
2018-07-31T17:09:53.989Z,32.70
2018-07-31T17:12:23.011Z,32.70
2018-07-31T17:14:52.229Z,32.60
2018-07-31T17:17:21.244Z,32.50
2018-07-31T17:19:50.327Z,32.60
2018-07-31T17:22:19.608Z,32.50
2018-07-31T17:24:49.938Z,32.50
2018-07-31T17:27:18.986Z,32.40
2018-07-31T17:29:48.051Z,32.40
2018-07-31T17:32:17.076Z,32.40
2018-07-31T17:34:46.472Z,32.30
2018-07-31T17:37:15.565Z,32.30
2018-07-31T17:39:44.667Z,32.30
2018-07-31T17:42:13.998Z,32.20
2018-07-31T17:47:11.763Z,32.10
2018-07-31T17:49:40.877Z,32.10
2018-07-31T17:52:10.364Z,32.00
2018-07-31T17:54:40.273Z,31.90
2018-07-31T17:57:09.433Z,31.80
2018-07-31T17:59:38.476Z,31.80
2018-07-31T18:02:07.518Z,31.80
2018-07-31T18:04:36.576Z,31.70
2018-07-31T18:07:05.710Z,31.70
2018-07-31T18:09:34.804Z,31.60
2018-07-31T18:12:06.739Z,31.50
2018-07-31T18:14:35.876Z,31.40
2018-07-31T18:17:04.857Z,31.40
2018-07-31T18:19:33.900Z,31.30
2018-07-31T18:22:02.990Z,31.20
2018-07-31T18:24:32.008Z,31.20
2018-07-31T18:27:01.102Z,31.10
2018-07-31T18:29:30.157Z,31.10
2018-07-31T18:31:59.438Z,31.00
2018-07-31T18:34:28.466Z,31.00
2018-07-31T18:36:57.485Z,30.90
2018-07-31T18:39:26.485Z,30.90
2018-07-31T18:41:55.486Z,30.80
2018-07-31T18:44:24.555Z,30.80
2018-07-31T18:46:53.668Z,30.70
2018-07-31T18:49:22.682Z,30.70
2018-07-31T18:51:51.687Z,30.70
2018-07-31T18:54:21.299Z,30.60
2018-07-31T18:56:50.660Z,30.60
2018-07-31T19:01:48.361Z,30.50
2018-07-31T19:04:17.340Z,30.40
2018-07-31T19:06:46.434Z,30.40
2018-07-31T19:09:15.405Z,30.30
2018-07-31T19:11:44.423Z,30.20
2018-07-31T19:14:13.421Z,30.10
2018-07-31T19:16:42.435Z,30.00
2018-07-31T19:19:11.457Z,29.90
2018-07-31T19:21:40.512Z,29.80
2018-07-31T19:24:09.509Z,29.80
2018-07-31T19:26:38.554Z,29.80
2018-07-31T19:29:07.576Z,29.70
2018-07-31T19:31:36.666Z,29.70
2018-07-31T19:34:05.717Z,29.60
2018-07-31T19:36:34.729Z,29.60
2018-07-31T19:39:04.581Z,29.60
2018-07-31T19:41:34.043Z,29.50
2018-07-31T19:44:03.174Z,29.50
2018-07-31T19:46:32.207Z,29.40
2018-07-31T19:49:03.417Z,29.30
2018-07-31T19:51:32.860Z,29.20
2018-07-31T19:54:01.897Z,29.20
2018-07-31T19:56:31.053Z,29.20
2018-07-31T19:59:00.119Z,29.10
2018-07-31T20:01:29.131Z,29.10
2018-07-31T20:03:58.246Z,29.10
2018-07-31T20:06:27.218Z,29.10
2018-07-31T20:08:56.283Z,29.00
2018-07-31T20:11:25.304Z,29.00
2018-07-31T20:16:22.956Z,28.90
2018-07-31T20:18:52.027Z,28.90
2018-07-31T20:21:21.180Z,28.80
2018-07-31T20:23:50.252Z,28.70
2018-07-31T20:26:19.259Z,28.70
2018-07-31T20:28:48.263Z,28.70
2018-07-31T20:31:17.298Z,28.70
2018-07-31T20:33:46.307Z,28.70
2018-07-31T20:36:15.334Z,28.60
2018-07-31T20:38:44.399Z,28.60
2018-07-31T20:41:13.424Z,28.60
2018-07-31T20:43:42.445Z,28.50
2018-07-31T20:46:11.479Z,28.50
2018-07-31T20:48:40.479Z,28.40
2018-07-31T20:51:09.530Z,28.40
2018-07-31T20:53:38.543Z,28.40
2018-07-31T20:56:07.535Z,28.30
2018-07-31T20:58:36.563Z,28.20
2018-07-31T21:01:05.593Z,28.30
2018-07-31T21:03:34.602Z,28.20
2018-07-31T21:06:03.702Z,28.10
2018-07-31T21:08:33.086Z,28.10
2018-07-31T21:11:02.148Z,28.00
2018-07-31T21:13:31.209Z,27.80
2018-07-31T21:16:00.466Z,27.80
2018-07-31T21:18:29.536Z,27.80
2018-07-31T21:20:58.575Z,27.80
2018-07-31T21:23:27.636Z,27.80
2018-07-31T21:25:56.717Z,27.70
2018-07-31T21:28:27.671Z,27.70
2018-07-31T21:30:57.420Z,27.50
2018-07-31T21:33:27.711Z,27.50
2018-07-31T21:35:57.615Z,27.40
2018-07-31T21:38:27.511Z,27.40
2018-07-31T21:40:56.966Z,27.40
2018-07-31T21:43:26.371Z,27.40
2018-07-31T21:45:55.816Z,27.40
2018-07-31T21:48:25.121Z,27.40
2018-07-31T21:50:54.170Z,27.40
2018-07-31T21:53:23.306Z,27.30
2018-07-31T21:55:52.278Z,27.30
2018-07-31T21:58:21.342Z,27.30
2018-07-31T22:00:55.589Z,27.30
2018-07-31T22:03:24.645Z,27.20
2018-07-31T22:05:53.704Z,27.10
2018-07-31T22:08:22.650Z,27.10
2018-07-31T22:10:51.624Z,27.10
2018-07-31T22:13:20.672Z,27.10
2018-07-31T22:15:49.667Z,27.00
2018-07-31T22:18:18.652Z,26.90
2018-07-31T22:20:47.965Z,26.90
2018-07-31T22:23:17.011Z,26.90
2018-07-31T22:25:46.072Z,26.80
2018-07-31T22:28:15.079Z,26.70
2018-07-31T22:30:44.100Z,26.80
2018-07-31T22:33:13.340Z,26.70
2018-07-31T22:35:43.156Z,26.70
2018-07-31T22:38:12.196Z,26.70
2018-07-31T22:40:41.296Z,26.70
2018-07-31T22:43:10.299Z,26.60
2018-07-31T22:45:39.321Z,26.70
2018-07-31T22:48:08.340Z,26.70
2018-07-31T22:50:37.340Z,26.70
2018-07-31T22:53:06.403Z,26.60
2018-07-31T22:55:35.418Z,26.50
2018-07-31T22:58:04.470Z,26.50
2018-07-31T23:00:33.546Z,26.50
2018-07-31T23:03:02.666Z,26.50
2018-07-31T23:05:32.108Z,26.50
2018-07-31T23:08:01.165Z,26.40
2018-07-31T23:10:30.153Z,26.30
2018-07-31T23:12:59.193Z,26.30
2018-07-31T23:15:28.270Z,26.30
2018-07-31T23:17:57.287Z,26.30
2018-07-31T23:20:26.302Z,26.20
2018-07-31T23:22:55.421Z,26.20
2018-07-31T23:25:24.499Z,26.20
2018-07-31T23:27:53.516Z,26.20
2018-07-31T23:30:22.511Z,26.20
2018-07-31T23:32:51.559Z,26.10
2018-07-31T23:35:20.569Z,26.10
2018-07-31T23:37:49.710Z,26.20
2018-07-31T23:40:18.767Z,26.20
2018-07-31T23:42:47.786Z,26.10
2018-07-31T23:45:16.847Z,26.10
2018-07-31T23:47:45.870Z,26.00
2018-07-31T23:50:15.002Z,25.90
2018-07-31T23:52:44.026Z,25.90
2018-07-31T23:55:13.052Z,25.90
2018-07-31T23:57:42.082Z,25.90
